Time;durP1;ratioP1;P1;durP2;ratioP2;P2;SDS_P1;SDS_P2;PMS_P1;PMS_P2;Temp;Humidity;BMP_temperature;BMP_pressure;BME280_temperature;BME280_humidity;BME280_pressure;Samples;Min_cycle;Max_cycle;Signal;HPM_P1;HPM_P2
2024/02/23 00:02:21;;;;;;;3.83;0.40;;;;;;;8.87;72.47;96656.78;4839592;29;20141;-76
2024/02/23 00:04:47;;;;;;;0.30;0.20;;;;;;;8.74;72.25;96678.16;4839846;29;20141;-75
2024/02/23 00:07:14;;;;;;;0.13;0.10;;;;;;;8.58;72.45;96694.56;4839759;29;20080;-75
2024/02/23 00:09:40;;;;;;;1.08;0.15;;;;;;;8.39;72.81;96693.72;4839248;29;20104;-76
2024/02/23 00:12:08;;;;;;;0.30;0.17;;;;;;;8.23;73.36;96719.78;4839484;29;20389;-75
2024/02/23 00:14:36;;;;;;;0.47;0.30;;;;;;;8.04;73.57;96726.78;4823604;29;20050;-77
2024/02/23 00:17:03;;;;;;;0.57;0.22;;;;;;;7.88;74.39;96732.63;4839760;29;20061;-77
2024/02/23 00:19:31;;;;;;;0.20;0.20;;;;;;;7.72;74.66;96741.13;4839343;29;20062;-77
2024/02/23 00:21:59;;;;;;;0.40;0.20;;;;;;;7.60;75.31;96748.34;4823413;29;20089;-78
2024/02/23 00:24:26;;;;;;;0.20;0.20;;;;;;;7.43;75.85;96746.34;4839480;29;20054;-78
2024/02/23 00:26:52;;;;;;;0.28;0.20;;;;;;;7.33;76.12;96781.34;4839296;29;20123;-78
2024/02/23 00:29:19;;;;;;;1.08;0.40;;;;;;;7.11;76.33;96797.19;4842778;29;20057;-78
2024/02/23 00:31:46;;;;;;;0.40;0.40;;;;;;;7.04;77.09;96781.22;4826559;29;20136;-76
2024/02/23 00:34:14;;;;;;;3.83;0.65;;;;;;;6.97;77.73;96792.41;4842855;29;20491;-79
2024/02/23 00:36:41;;;;;;;0.40;0.40;;;;;;;6.86;78.22;96799.44;4842941;29;20060;-77
2024/02/23 00:39:08;;;;;;;0.68;0.50;;;;;;;6.77;78.41;96819.38;4842670;29;20107;-78
2024/02/23 00:41:36;;;;;;;4.25;0.60;;;;;;;6.68;78.79;96846.31;4842765;29;20066;-80
2024/02/23 00:44:03;;;;;;;0.50;0.50;;;;;;;6.61;79.06;96830.34;4842850;29;20089;-78
2024/02/23 00:46:30;;;;;;;0.45;0.45;;;;;;;6.54;79.23;96841.50;4842694;29;20064;-78
2024/02/23 00:48:56;;;;;;;0.70;0.60;;;;;;;6.49;79.75;96850.56;4842477;29;20087;-78
2024/02/23 00:51:23;;;;;;;1.60;0.60;;;;;;;6.44;79.82;96863.22;4842710;29;20066;-79
2024/02/23 00:53:50;;;;;;;0.50;0.50;;;;;;;6.40;80.31;96867.03;4842486;29;20062;-81
2024/02/23 00:56:16;;;;;;;4.70;0.43;;;;;;;6.31;80.38;96873.06;4842742;29;20061;-77
2024/02/23 00:58:43;;;;;;;0.60;0.60;;;;;;;6.28;80.29;96894.22;4841283;29;20062;-79
2024/02/23 01:01:09;;;;;;;1.60;0.60;;;;;;;6.29;81.04;96880.19;4842555;29;20504;-78
2024/02/23 01:03:36;;;;;;;0.52;0.52;;;;;;;6.25;81.11;96898.72;4842478;29;20100;-78
2024/02/23 01:06:03;;;;;;;0.60;0.60;;;;;;;6.19;81.43;96896.66;4842419;29;20126;-79
2024/02/23 01:08:31;;;;;;;0.60;0.60;;;;;;;6.20;81.62;96915.78;4842073;29;20064;-78
2024/02/23 01:10:57;;;;;;;0.55;0.50;;;;;;;6.17;81.87;96918.66;4842527;29;20064;-77
2024/02/23 01:13:24;;;;;;;0.60;0.60;;;;;;;6.15;81.28;96933.59;4842946;29;20125;-79
2024/02/23 01:15:51;;;;;;;0.60;0.60;;;;;;;6.15;81.75;96965.78;4842550;29;20119;-78
2024/02/23 01:18:18;;;;;;;0.60;0.60;;;;;;;6.11;81.34;96951.31;4842109;29;20058;-77
2024/02/23 01:20:45;;;;;;;1.10;0.70;;;;;;;6.06;81.44;96964.75;4841999;29;20508;-79
2024/02/23 01:23:11;;;;;;;0.95;0.95;;;;;;;6.03;81.21;96995.50;4840745;29;20101;-77
2024/02/23 01:25:39;;;;;;;0.88;0.80;;;;;;;5.96;81.38;96967.31;4842224;29;20080;-80
2024/02/23 01:28:05;;;;;;;1.52;0.73;;;;;;;5.99;81.99;97008.00;4841882;29;20065;-77
2024/02/23 01:30:32;;;;;;;1.08;0.85;;;;;;;5.90;81.65;96985.25;4841959;29;20118;-77
2024/02/23 01:33:00;;;;;;;1.60;1.00;;;;;;;5.94;82.20;96987.47;4825531;29;20062;-79
2024/02/23 01:35:27;;;;;;;2.05;1.23;;;;;;;5.96;82.20;96996.03;4841789;29;20064;-78
2024/02/23 01:37:54;;;;;;;1.17;1.02;;;;;;;6.00;82.28;97012.25;4825076;29;20491;-77
2024/02/23 01:40:20;;;;;;;1.70;1.20;;;;;;;6.02;82.11;97012.94;4841145;29;20488;-76
2024/02/23 01:42:47;;;;;;;2.67;1.50;;;;;;;6.00;81.59;97017.47;4825460;29;20054;-78
2024/02/23 01:45:13;;;;;;;3.33;1.30;;;;;;;6.03;81.99;97012.03;4840815;29;20110;-78
2024/02/23 01:47:41;;;;;;;3.85;1.48;;;;;;;6.05;82.02;97017.94;4841469;29;20460;-78
2024/02/23 01:50:09;;;;;;;2.28;1.85;;;;;;;6.06;82.28;97024.00;4841487;29;20054;-78
2024/02/23 01:52:36;;;;;;;2.63;1.50;;;;;;;6.05;82.16;97022.38;4841743;29;20089;-79
2024/02/23 01:55:03;;;;;;;2.83;1.67;;;;;;;6.07;81.95;97060.44;4841658;29;20061;-77
2024/02/23 01:57:30;;;;;;;1.90;1.40;;;;;;;6.07;82.11;97041.31;4841149;29;20058;-78
2024/02/23 02:00:17;;;;;;;3.30;1.75;;;;;;;6.11;81.79;97051.41;4841443;29;20636;-77
2024/02/23 02:02:45;;;;;;;2.47;1.50;;;;;;;6.13;81.64;97038.19;4841215;29;20065;-79
2024/02/23 02:05:11;;;;;;;3.03;1.45;;;;;;;6.13;81.32;97054.72;4841550;29;20073;-78
2024/02/23 02:07:41;;;;;;;3.38;1.77;;;;;;;6.15;81.22;97054.59;4841196;29;20054;-77
2024/02/23 02:10:09;;;;;;;5.18;1.83;;;;;;;6.15;80.51;97056.34;4841116;29;20656;-78
2024/02/23 02:12:36;;;;;;;5.13;2.20;;;;;;;6.19;81.46;97057.75;4841218;29;20054;-77
2024/02/23 02:15:03;;;;;;;1.92;1.75;;;;;;;6.18;80.81;97066.56;4841009;29;20083;-79
2024/02/23 02:17:30;;;;;;;1.88;1.60;;;;;;;6.20;81.26;97059.44;4840845;29;20126;-77
2024/02/23 02:20:06;;;;;;;5.32;1.90;;;;;;;6.20;80.79;97057.63;4841126;29;20400;-79
2024/02/23 02:22:33;;;;;;;3.45;2.05;;;;;;;6.20;81.02;97070.69;4841390;29;20146;-78
2024/02/23 02:25:00;;;;;;;3.90;2.38;;;;;;;6.18;81.24;97061.34;4841104;29;20058;-78
2024/02/23 02:27:26;;;;;;;2.83;1.92;;;;;;;6.19;80.85;97074.28;4840668;29;20503;-78
2024/02/23 02:29:53;;;;;;;2.25;2.05;;;;;;;6.19;80.63;97063.00;4840984;29;20057;-77
2024/02/23 02:32:19;;;;;;;3.60;2.38;;;;;;;6.16;80.53;97058.84;4839408;29;20061;-81
2024/02/23 02:34:46;;;;;;;3.75;2.72;;;;;;;6.14;80.17;97092.13;4840803;29;20145;-78
2024/02/23 02:37:13;;;;;;;4.32;2.38;;;;;;;6.17;80.96;97091.03;4840716;29;20152;-78
2024/02/23 02:39:40;;;;;;;5.28;2.63;;;;;;;6.13;80.37;97087.81;4840569;29;20210;-78
2024/02/23 02:42:07;;;;;;;2.60;2.40;;;;;;;6.11;79.68;97108.03;4840611;29;20097;-79
2024/02/23 02:44:33;;;;;;;4.03;2.90;;;;;;;6.08;80.30;97093.44;4824624;29;20093;-77
2024/02/23 02:47:01;;;;;;;7.30;3.20;;;;;;;6.03;80.10;97098.22;4840793;29;20118;-77
2024/02/23 02:49:27;;;;;;;5.43;3.50;;;;;;;6.04;80.87;97097.25;4840413;29;20072;-77
2024/02/23 02:51:54;;;;;;;4.85;3.03;;;;;;;6.05;80.93;97098.91;4839716;29;20061;-76
2024/02/23 02:54:21;;;;;;;5.22;3.22;;;;;;;6.07;81.36;97107.47;4840473;29;20062;-80
2024/02/23 02:56:48;;;;;;;6.15;3.10;;;;;;;6.08;81.38;97118.72;4840403;29;20061;-77
2024/02/23 02:59:14;;;;;;;8.40;3.58;;;;;;;6.11;81.55;97116.69;4840445;29;20057;-76
2024/02/23 03:01:41;;;;;;;5.82;3.63;;;;;;;6.11;81.67;97124.53;4840281;29;20062;-76
2024/02/23 03:04:08;;;;;;;7.07;3.78;;;;;;;6.16;82.02;97149.47;4840306;29;20084;-77
2024/02/23 03:06:35;;;;;;;5.22;3.50;;;;;;;6.17;81.80;97127.59;4823968;29;20136;-77
2024/02/23 03:09:02;;;;;;;9.27;4.20;;;;;;;6.22;81.68;97120.22;4840286;29;20141;-77
2024/02/23 03:11:29;;;;;;;6.60;3.45;;;;;;;6.24;81.95;97115.69;4840130;29;20141;-76
2024/02/23 03:13:56;;;;;;;9.18;4.40;;;;;;;6.28;81.46;97134.56;4840327;29;20061;-76
2024/02/23 03:16:23;;;;;;;5.78;3.30;;;;;;;6.32;81.05;97121.09;4824089;29;20113;-78
2024/02/23 03:18:50;;;;;;;6.70;3.78;;;;;;;6.36;81.23;97127.72;4840172;29;20065;-76
2024/02/23 03:21:17;;;;;;;5.63;3.28;;;;;;;6.43;81.59;97125.44;4840039;29;20054;-77
2024/02/23 03:23:45;;;;;;;6.00;3.78;;;;;;;6.44;80.72;97132.34;4838795;29;20146;-76
2024/02/23 03:26:11;;;;;;;8.30;3.30;;;;;;;6.51;81.04;97127.44;4839865;29;20460;-77
2024/02/23 03:28:38;;;;;;;9.35;3.80;;;;;;;6.54;80.35;97129.78;4839995;29;20058;-76
2024/02/23 03:31:08;;;;;;;8.52;3.63;;;;;;;6.57;80.55;97145.22;4840117;29;20107;-76
2024/02/23 03:33:34;;;;;;;10.75;3.30;;;;;;;6.60;80.35;97151.97;4840186;29;20089;-76
2024/02/23 03:36:03;;;;;;;8.07;3.05;;;;;;;6.62;79.64;97150.88;4839973;29;20500;-79
2024/02/23 03:38:29;;;;;;;9.48;3.30;;;;;;;6.62;79.02;97169.19;4839566;29;20057;-80
2024/02/23 03:40:58;;;;;;;6.95;2.75;;;;;;;6.68;79.86;97152.16;4840115;29;20054;-77
2024/02/23 03:43:25;;;;;;;6.70;3.13;;;;;;;6.71;79.70;97157.16;4839929;29;20065;-77
2024/02/23 03:45:51;;;;;;;5.28;2.25;;;;;;;6.73;79.08;97159.63;4839855;29;20058;-76
2024/02/23 03:48:18;;;;;;;6.03;2.20;;;;;;;6.74;79.06;97153.44;4839743;29;20096;-77
2024/02/23 03:50:45;;;;;;;6.45;1.95;;;;;;;6.77;79.27;97179.34;4839889;29;20089;-77
2024/02/23 03:53:12;;;;;;;7.40;2.45;;;;;;;6.76;78.50;97165.44;4839781;29;20068;-79
2024/02/23 03:55:39;;;;;;;7.05;2.25;;;;;;;6.82;78.79;97156.25;4840050;29;20085;-77
2024/02/23 03:58:06;;;;;;;11.82;2.60;;;;;;;6.83;78.12;97173.59;4839671;29;20469;-76
2024/02/23 04:00:34;;;;;;;5.43;1.70;;;;;;;6.86;78.56;97165.50;4838580;29;20066;-78
2024/02/23 04:03:01;;;;;;;9.73;1.98;;;;;;;6.87;78.19;97195.06;4841519;29;20061;-79
2024/02/23 04:05:28;;;;;;;7.65;1.92;;;;;;;6.87;76.99;97182.00;4843516;29;20499;-76
2024/02/23 04:07:54;;;;;;;7.60;2.42;;;;;;;6.88;77.58;97200.19;4843115;29;20054;-78
2024/02/23 04:10:21;;;;;;;4.07;1.77;;;;;;;6.87;76.94;97180.22;4843533;29;20109;-77
2024/02/23 04:12:48;;;;;;;4.43;1.77;;;;;;;6.90;76.86;97187.81;4843542;29;20058;-77
2024/02/23 04:15:14;;;;;;;5.40;1.73;;;;;;;6.88;76.35;97197.56;4827003;29;20058;-77
2024/02/23 04:17:41;;;;;;;7.20;1.83;;;;;;;6.90;76.98;97208.75;4843093;29;20131;-77
2024/02/23 04:20:11;;;;;;;7.40;1.63;;;;;;;6.91;77.04;97197.31;4843308;29;20050;-76
2024/02/23 04:22:38;;;;;;;8.23;1.95;;;;;;;6.94;76.81;97201.47;4843626;29;20148;-78
2024/02/23 04:25:05;;;;;;;5.72;1.75;;;;;;;6.93;74.68;97220.72;4843388;29;20058;-77
2024/02/23 04:27:32;;;;;;;3.20;1.58;;;;;;;6.97;76.76;97213.44;4842880;29;20515;-76
2024/02/23 04:29:59;;;;;;;8.85;2.22;;;;;;;6.98;76.43;97225.56;4843051;29;20062;-78
2024/02/23 04:32:25;;;;;;;6.18;1.98;;;;;;;6.96;75.43;97214.41;4843018;29;20088;-77
2024/02/23 04:34:52;;;;;;;8.93;2.30;;;;;;;6.94;75.13;97216.31;4842995;29;20062;-77
2024/02/23 04:37:19;;;;;;;5.30;2.03;;;;;;;6.93;75.93;97232.97;4843203;29;20062;-78
2024/02/23 04:39:46;;;;;;;8.73;2.20;;;;;;;6.93;75.13;97239.03;4843273;29;20442;-77
2024/02/23 04:42:12;;;;;;;7.30;2.08;;;;;;;6.95;76.72;97226.66;4843073;29;20061;-76
2024/02/23 04:44:42;;;;;;;7.43;1.73;;;;;;;6.96;75.86;97222.25;4841607;29;20116;-76
2024/02/23 04:47:09;;;;;;;4.65;1.90;;;;;;;6.98;76.03;97236.88;4842626;29;20065;-77
2024/02/23 04:49:35;;;;;;;8.52;1.88;;;;;;;6.97;76.50;97234.38;4842807;29;20054;-76
2024/02/23 04:52:02;;;;;;;6.15;1.73;;;;;;;6.96;76.37;97243.19;4842762;29;20061;-77
2024/02/23 04:54:29;;;;;;;5.22;1.40;;;;;;;6.96;76.66;97251.88;4826350;29;20065;-76
2024/02/23 04:56:55;;;;;;;8.55;2.25;;;;;;;6.94;75.97;97260.78;4842601;29;20465;-77
2024/02/23 04:59:22;;;;;;;7.60;1.90;;;;;;;6.95;76.23;97265.88;4841250;29;20064;-79
2024/02/23 05:01:49;;;;;;;4.32;1.38;;;;;;;6.91;75.99;97251.41;4842395;29;20062;-77
2024/02/23 05:04:16;;;;;;;5.22;1.60;;;;;;;6.92;76.45;97250.47;4825992;29;20653;-76
2024/02/23 05:06:43;;;;;;;7.47;1.77;;;;;;;6.94;76.99;97251.16;4842555;29;20058;-79
2024/02/23 05:09:11;;;;;;;8.13;2.28;;;;;;;6.93;76.00;97265.19;4842354;29;20144;-76
2024/02/23 05:11:38;;;;;;;8.93;2.00;;;;;;;6.93;75.63;97253.88;4842309;29;20065;-77
2024/02/23 05:14:05;;;;;;;9.30;2.20;;;;;;;6.91;75.98;97262.69;4841378;29;20069;-77
2024/02/23 05:16:32;;;;;;;5.78;2.15;;;;;;;6.91;76.66;97262.69;4842177;29;20065;-77
2024/02/23 05:18:59;;;;;;;7.25;1.70;;;;;;;6.92;76.31;97263.53;4825673;29;20060;-76
2024/02/23 05:21:25;;;;;;;7.97;1.80;;;;;;;6.91;76.53;97261.84;4842254;29;20062;-79
2024/02/23 05:23:52;;;;;;;6.25;1.52;;;;;;;6.91;76.76;97257.47;4842279;29;20064;-77
2024/02/23 05:31:46;;;;;;;6.22;1.58;;;;;;;6.89;76.70;97259.38;4840299;29;20511;-79
2024/02/23 05:34:13;;;;;;;6.93;2.10;;;;;;;6.89;76.75;97264.59;4842053;29;20066;-79
2024/02/23 05:36:40;;;;;;;12.45;2.30;;;;;;;6.81;74.65;97264.41;4841932;29;20146;-79
2024/02/23 05:39:07;;;;;;;7.72;2.33;;;;;;;6.83;76.20;97265.13;4841666;29;20145;-79
2024/02/23 05:41:34;;;;;;;6.90;2.10;;;;;;;6.85;76.59;97273.69;4841936;29;20475;-78
2024/02/23 05:44:03;;;;;;;3.88;1.50;;;;;;;6.85;76.49;97270.22;4825475;29;20158;-79
2024/02/23 05:46:34;;;;;;;7.25;1.73;;;;;;;6.87;76.90;97282.22;4841802;29;20060;-79
2024/02/23 05:49:02;;;;;;;8.40;1.55;;;;;;;6.85;76.71;97273.69;4841601;29;20064;-78
2024/02/23 05:51:30;;;;;;;7.07;1.70;;;;;;;6.82;76.18;97289.59;4825225;29;20054;-79
2024/02/23 05:53:57;;;;;;;5.30;1.73;;;;;;;6.86;76.47;97279.72;4825119;29;20058;-79
2024/02/23 05:56:24;;;;;;;7.25;1.83;;;;;;;6.85;76.07;97286.75;4825377;29;20070;-79
2024/02/23 05:58:51;;;;;;;5.65;1.92;;;;;;;6.88;76.35;97296.94;4841406;29;20141;-78
2024/02/23 06:01:19;;;;;;;6.50;1.75;;;;;;;6.90;76.71;97286.34;4833972;29;20408;-78
2024/02/23 06:03:46;;;;;;;7.15;1.52;;;;;;;6.87;74.85;97317.97;4841753;29;20122;-78
2024/02/23 06:06:14;;;;;;;9.77;2.00;;;;;;;6.87;75.85;97292.66;4825032;29;20150;-79
2024/02/23 06:08:40;;;;;;;12.38;1.40;;;;;;;6.89;75.71;97301.19;4841246;29;20070;-79
2024/02/23 06:11:09;;;;;;;7.28;1.40;;;;;;;6.90;75.82;97289.81;4841392;29;20061;-78
2024/02/23 06:13:36;;;;;;;5.40;1.48;;;;;;;6.90;76.16;97305.50;4841548;29;20096;-78
2024/02/23 06:16:04;;;;;;;8.45;1.80;;;;;;;6.91;75.32;97293.25;4824754;29;20065;-79
2024/02/23 06:18:31;;;;;;;4.85;1.63;;;;;;;6.95;76.38;97304.31;4841068;29;20093;-79
2024/02/23 06:20:58;;;;;;;8.15;2.35;;;;;;;6.91;75.44;97301.94;4840948;29;20141;-79
2024/02/23 06:23:24;;;;;;;5.13;1.60;;;;;;;6.93;75.74;97304.41;4824585;29;20492;-79
2024/02/23 06:25:51;;;;;;;8.43;1.73;;;;;;;6.95;76.11;97306.91;4840882;29;20157;-79
2024/02/23 06:28:18;;;;;;;5.95;1.60;;;;;;;6.93;75.62;97304.41;4832966;29;20100;-79
2024/02/23 06:30:45;;;;;;;10.90;2.15;;;;;;;6.90;73.51;97291.59;4840817;29;20054;-79
2024/02/23 06:33:12;;;;;;;5.43;1.38;;;;;;;6.91;75.86;97308.94;4840490;29;20148;-80
2024/02/23 06:35:38;;;;;;;9.75;2.30;;;;;;;6.88;75.82;97307.41;4840375;29;20492;-79
2024/02/23 06:38:06;;;;;;;5.30;1.63;;;;;;;6.89;76.45;97316.09;4840649;29;20089;-79
2024/02/23 06:40:33;;;;;;;5.20;1.70;;;;;;;6.88;76.34;97317.84;4840815;29;20066;-78
2024/02/23 06:43:14;;;;;;;4.90;1.70;;;;;;;6.89;76.39;97323.94;4840803;29;20351;-78
2024/02/23 06:45:40;;;;;;;6.63;1.90;;;;;;;6.90;76.55;97323.81;4840467;29;20466;-79
2024/02/23 06:48:08;;;;;;;6.70;2.00;;;;;;;6.89;76.46;97326.53;4823920;29;20580;-79
2024/02/23 06:50:35;;;;;;;6.18;1.65;;;;;;;6.90;76.33;97328.19;4840438;29;20057;-79
2024/02/23 06:53:02;;;;;;;6.93;1.83;;;;;;;6.95;77.03;97340.91;4840511;29;20054;-79
2024/02/23 06:55:29;;;;;;;7.45;1.88;;;;;;;6.96;76.77;97332.94;4840453;29;20068;-79
2024/02/23 06:57:55;;;;;;;5.95;1.90;;;;;;;6.95;76.42;97339.09;4823846;29;20062;-78
2024/02/23 07:00:22;;;;;;;7.07;2.00;;;;;;;6.97;76.42;97336.38;4840000;29;20508;-78
2024/02/23 07:02:48;;;;;;;10.40;2.13;;;;;;;6.94;75.53;97344.47;4839459;29;20097;-78
2024/02/23 07:05:15;;;;;;;8.13;1.75;;;;;;;6.95;76.38;97340.91;4838604;29;20085;-78
2024/02/23 07:07:42;;;;;;;5.88;1.80;;;;;;;6.95;76.13;97326.03;4840344;29;20061;-77
2024/02/23 07:10:10;;;;;;;6.60;2.08;;;;;;;6.95;75.30;97335.69;4839766;29;20418;-77
2024/02/23 07:12:36;;;;;;;8.90;2.60;;;;;;;6.96;75.81;97332.94;4823054;29;20439;-77
2024/02/23 07:15:03;;;;;;;6.88;2.00;;;;;;;6.92;75.52;97331.53;4839690;29;20108;-77
2024/02/23 07:17:30;;;;;;;5.75;2.05;;;;;;;6.89;75.36;97348.28;4839777;29;20161;-77
2024/02/23 07:20:05;;;;;;;7.38;2.00;;;;;;;6.89;75.71;97350.91;4822326;29;20057;-77
2024/02/23 07:22:32;;;;;;;9.38;2.08;;;;;;;6.90;75.59;97357.81;4822371;29;20054;-77
2024/02/23 07:25:01;;;;;;;5.97;2.00;;;;;;;6.90;76.11;97331.66;4838372;29;20097;-77
2024/02/23 07:27:29;;;;;;;8.25;1.60;;;;;;;6.92;76.24;97328.91;4838156;29;20054;-77
2024/02/23 07:29:55;;;;;;;6.50;1.50;;;;;;;6.97;77.10;97323.28;4838043;29;20539;-78
2024/02/23 07:32:22;;;;;;;6.85;1.65;;;;;;;7.00;76.46;97336.13;4822134;29;20054;-77
2024/02/23 07:34:49;;;;;;;7.93;1.70;;;;;;;7.01;76.37;97328.16;4839611;29;20053;-76
2024/02/23 07:37:16;;;;;;;7.50;1.73;;;;;;;7.07;76.94;97332.06;4839080;29;20496;-77
2024/02/23 07:39:44;;;;;;;8.38;1.92;;;;;;;7.12;76.90;97336.91;4840256;29;20061;-76
2024/02/23 07:42:10;;;;;;;6.25;2.22;;;;;;;7.14;76.62;97338.44;4839494;29;20113;-76
2024/02/23 07:44:37;;;;;;;10.60;2.10;;;;;;;7.18;76.49;97344.28;4827832;29;20152;-76
2024/02/23 07:47:04;;;;;;;7.75;1.98;;;;;;;7.21;76.31;97330.09;4839972;29;20068;-76
2024/02/23 07:52:12;;;;;;;4.97;1.40;;;;;;;7.26;75.36;97346.25;4844164;24;20069;-76
2024/02/23 07:54:38;;;;;;;7.10;1.65;;;;;;;7.33;76.87;97334.31;4839760;29;20519;-76
2024/02/23 07:57:05;;;;;;;10.95;2.15;;;;;;;7.32;74.56;97377.13;4823662;29;20104;-81
2024/02/23 07:59:32;;;;;;;8.43;1.50;;;;;;;7.33;75.83;97336.91;4839721;29;20062;-76
2024/02/23 08:01:59;;;;;;;4.85;1.77;;;;;;;7.37;75.11;97334.91;4840050;29;20435;-76
2024/02/23 08:04:26;;;;;;;4.20;1.70;;;;;;;7.38;74.82;97337.38;4839913;29;20054;-76
2024/02/23 08:06:52;;;;;;;7.57;1.73;;;;;;;7.41;75.39;97344.97;4839839;29;20119;-79
2024/02/23 08:09:22;;;;;;;11.63;1.65;;;;;;;7.45;75.35;97348.19;4839412;29;20114;-77
2024/02/23 08:11:49;;;;;;;6.78;1.50;;;;;;;7.43;74.85;97332.59;4839791;29;20114;-78
2024/02/23 08:14:15;;;;;;;9.52;2.10;;;;;;;7.44;73.76;97341.25;4839792;29;20478;-77
2024/02/23 08:16:42;;;;;;;7.65;1.50;;;;;;;7.48;75.07;97334.81;4839993;29;20461;-76
2024/02/23 08:19:08;;;;;;;7.38;2.05;;;;;;;7.47;73.76;97354.09;4839456;29;20523;-77
2024/02/23 08:21:36;;;;;;;7.97;1.83;;;;;;;7.50;74.75;97350.41;4839715;29;20053;-76
2024/02/23 08:24:03;;;;;;;7.45;1.33;;;;;;;7.48;73.41;97353.13;4839369;29;20486;-76
2024/02/23 08:26:30;;;;;;;7.80;2.35;;;;;;;7.52;74.57;97361.59;4839598;29;20111;-77
2024/02/23 08:28:56;;;;;;;7.85;2.40;;;;;;;7.52;74.04;97348.50;4823235;29;20066;-77
2024/02/23 08:31:23;;;;;;;4.47;1.10;;;;;;;7.53;73.83;97356.22;4823057;29;20515;-77
2024/02/23 08:33:49;;;;;;;3.45;1.52;;;;;;;7.55;74.10;97361.31;4823320;29;20065;-76
2024/02/23 08:36:16;;;;;;;7.32;1.50;;;;;;;7.58;74.74;97370.72;4839441;29;20531;-75
2024/02/23 08:38:42;;;;;;;4.55;1.60;;;;;;;7.62;74.96;97375.56;4839258;29;20066;-76
2024/02/23 08:41:09;;;;;;;8.57;1.73;;;;;;;7.64;73.89;97394.59;4839533;29;20118;-79
2024/02/23 08:43:36;;;;;;;12.68;2.08;;;;;;;7.63;73.84;97381.63;4839261;29;20155;-77
2024/02/23 08:46:02;;;;;;;6.05;1.42;;;;;;;7.72;74.88;97374.78;4839259;29;20050;-76
2024/02/23 08:48:35;;;;;;;8.10;1.85;;;;;;;7.75;74.20;97375.38;4840129;29;20084;-80
2024/02/23 08:51:02;;;;;;;2.97;0.82;;;;;;;7.80;74.42;97378.44;4842504;29;20061;-76
2024/02/23 08:53:28;;;;;;;8.88;1.58;;;;;;;7.84;74.65;97376.38;4826376;29;20412;-78
2024/02/23 08:55:55;;;;;;;7.05;1.90;;;;;;;7.89;74.17;97376.81;4842762;29;20072;-77
2024/02/23 08:58:22;;;;;;;5.63;1.30;;;;;;;7.92;74.36;97384.41;4825959;29;20061;-76
2024/02/23 09:00:48;;;;;;;7.82;1.65;;;;;;;7.97;74.38;97373.56;4842615;29;20491;-76
2024/02/23 09:03:15;;;;;;;9.07;1.95;;;;;;;8.01;73.23;97361.03;4843067;29;20399;-75
2024/02/23 09:05:41;;;;;;;5.72;1.42;;;;;;;8.04;72.81;97364.19;4842225;29;20133;-76
2024/02/23 09:08:08;;;;;;;3.60;1.02;;;;;;;8.12;74.40;97365.34;4840528;29;20416;-78
2024/02/23 09:10:35;;;;;;;3.97;1.05;;;;;;;8.16;73.69;97354.47;4824293;29;20054;-76
2024/02/23 09:13:01;;;;;;;7.60;1.80;;;;;;;8.20;73.30;97352.41;4840961;29;20126;-77
2024/02/23 09:15:31;;;;;;;8.88;1.77;;;;;;;8.18;71.24;97385.78;4841016;29;20050;-76
2024/02/23 09:17:57;;;;;;;6.00;1.55;;;;;;;8.23;72.51;97381.00;4840579;29;20062;-78
2024/02/23 09:20:24;;;;;;;5.53;1.40;;;;;;;8.27;73.02;97371.91;4840895;29;20058;-77
2024/02/23 09:22:52;;;;;;;5.53;1.20;;;;;;;8.27;71.24;97394.66;4840036;29;20056;-77
2024/02/23 09:25:19;;;;;;;4.57;1.40;;;;;;;8.29;72.28;97397.97;4840803;29;20507;-74
2024/02/23 09:27:45;;;;;;;9.52;1.30;;;;;;;8.30;72.12;97371.63;4841536;29;20062;-77
2024/02/23 09:30:13;;;;;;;6.13;1.58;;;;;;;8.30;71.55;97374.25;4841597;29;20552;-77
2024/02/23 09:32:39;;;;;;;5.68;1.08;;;;;;;8.32;71.40;97385.44;4824827;29;20583;-76
2024/02/23 09:35:07;;;;;;;4.72;1.30;;;;;;;8.33;71.79;97371.38;4842088;29;20421;-77
2024/02/23 09:37:33;;;;;;;4.35;1.63;;;;;;;8.35;72.17;97377.28;4824981;29;20057;-76
2024/02/23 09:40:00;;;;;;;5.43;0.93;;;;;;;8.35;69.49;97410.56;4841406;29;20496;-76
2024/02/23 09:42:32;;;;;;;5.97;1.20;;;;;;;8.39;71.68;97392.75;4841316;29;20058;-78
2024/02/23 09:45:00;;;;;;;6.82;1.40;;;;;;;8.42;71.59;97390.72;4841574;29;20503;-75
2024/02/23 09:47:28;;;;;;;8.18;1.77;;;;;;;8.48;72.76;97381.47;4824664;29;20069;-76
2024/02/23 09:49:55;;;;;;;6.45;1.10;;;;;;;8.51;71.41;97396.94;4841355;29;20054;-76
2024/02/23 09:52:22;;;;;;;5.53;1.52;;;;;;;8.54;72.53;97398.50;4841297;29;20054;-75
2024/02/23 09:54:49;;;;;;;4.15;1.40;;;;;;;8.55;72.47;97397.53;4841324;29;20544;-77
2024/02/23 09:57:18;;;;;;;3.03;1.30;;;;;;;8.53;69.29;97431.78;4841243;29;20057;-76
2024/02/23 09:59:48;;;;;;;5.88;1.15;;;;;;;8.50;69.89;97404.94;4840553;29;20491;-75
2024/02/23 10:02:16;;;;;;;4.13;1.33;;;;;;;8.50;70.62;97395.28;4841193;29;20060;-76
2024/02/23 10:04:43;;;;;;;3.95;1.33;;;;;;;8.48;70.36;97418.19;4824884;29;20476;-76
2024/02/23 10:07:14;;;;;;;7.20;1.40;;;;;;;8.47;71.89;97406.88;4840996;29;20054;-76
2024/02/23 10:09:40;;;;;;;6.72;1.40;;;;;;;8.46;71.96;97405.19;4840993;29;20058;-77
2024/02/23 10:12:07;;;;;;;2.65;1.27;;;;;;;8.47;72.70;97396.38;4840850;29;20080;-75
2024/02/23 10:14:34;;;;;;;7.82;1.45;;;;;;;8.45;71.93;97397.50;4833508;29;20050;-77
2024/02/23 10:17:02;;;;;;;6.43;1.30;;;;;;;8.44;72.26;97412.38;4840964;29;20140;-76
2024/02/23 10:19:29;;;;;;;8.50;1.42;;;;;;;8.43;72.39;97410.72;4840517;29;20096;-76
2024/02/23 10:21:56;;;;;;;3.88;1.40;;;;;;;8.45;72.90;97406.16;4841165;29;20057;-78
2024/02/23 10:24:26;;;;;;;3.45;1.20;;;;;;;8.47;73.07;97409.50;4840581;29;20065;-76
2024/02/23 10:26:53;;;;;;;5.38;1.80;;;;;;;8.48;72.77;97418.19;4838798;29;20103;-77
2024/02/23 10:29:19;;;;;;;5.43;1.52;;;;;;;8.52;73.64;97409.09;4839609;29;20090;-76
2024/02/23 10:31:51;;;;;;;3.92;1.75;;;;;;;8.54;72.28;97432.59;4840651;29;20061;-78
2024/02/23 10:34:19;;;;;;;6.70;1.30;;;;;;;8.54;71.83;97428.19;4840775;29;20427;-75
2024/02/23 10:36:47;;;;;;;6.05;1.27;;;;;;;8.60;73.40;97416.34;4840553;29;20057;-75
2024/02/23 10:39:21;;;;;;;5.30;1.45;;;;;;;8.60;70.32;97438.13;4840030;29;20522;-75
2024/02/23 10:41:58;;;;;;;7.80;1.67;;;;;;;8.61;65.34;97423.25;4840905;29;20053;-75
2024/02/23 10:44:27;;;;;;;4.65;1.35;;;;;;;8.67;71.05;97448.09;4840305;29;20068;-79
2024/02/23 10:46:54;;;;;;;5.28;1.17;;;;;;;8.67;71.17;97433.19;4840359;29;20060;-77
2024/02/23 10:49:26;;;;;;;5.13;2.13;;;;;;;8.71;71.32;97428.53;4839925;29;20054;-76
2024/02/23 10:51:53;;;;;;;5.38;1.70;;;;;;;8.77;72.93;97421.88;4840486;29;20066;-75
2024/02/23 10:54:21;;;;;;;8.43;1.88;;;;;;;8.76;71.07;97426.31;4840352;29;20065;-77
2024/02/23 10:56:50;;;;;;;7.30;1.80;;;;;;;8.77;71.28;97438.47;4840394;29;20054;-79
2024/02/23 10:59:18;;;;;;;10.00;2.08;;;;;;;8.75;71.40;97435.16;4839968;29;20683;-79
2024/02/23 11:01:51;;;;;;;6.60;2.15;;;;;;;8.77;71.82;97427.13;4840085;29;20149;-77
2024/02/23 11:04:22;;;;;;;8.55;1.80;;;;;;;8.78;69.96;97423.56;4839963;29;20559;-75
2024/02/23 11:07:04;;;;;;;6.20;1.77;;;;;;;8.81;72.25;97420.66;4840123;29;20141;-76
2024/02/23 11:09:31;;;;;;;4.85;1.30;;;;;;;8.83;73.50;97421.38;4834005;29;20068;-76
2024/02/23 11:11:58;;;;;;;9.20;1.45;;;;;;;8.84;72.49;97423.00;4839261;29;20140;-78
2024/02/23 11:14:36;;;;;;;4.20;1.23;;;;;;;8.81;68.71;97424.13;4839876;29;20081;-76
2024/02/23 11:17:04;;;;;;;5.80;1.60;;;;;;;8.86;72.53;97426.34;4839856;29;20058;-78
2024/02/23 11:19:37;;;;;;;7.68;2.10;;;;;;;8.84;68.94;97438.75;4839723;29;20065;-77
2024/02/23 11:22:04;;;;;;;5.00;1.92;;;;;;;8.83;71.26;97427.41;4839859;29;20062;-76
2024/02/23 11:24:33;;;;;;;3.92;1.70;;;;;;;8.85;71.24;97437.78;4823846;29;20506;-76
2024/02/23 11:27:07;;;;;;;6.90;2.25;;;;;;;8.87;71.62;97428.00;4950812;24;20052;-83
2024/02/23 11:29:36;;;;;;;5.63;1.45;;;;;;;8.89;71.86;97420.81;4839878;29;20049;-83
2024/02/23 11:32:03;;;;;;;6.10;1.73;;;;;;;8.93;72.68;97426.63;4839946;29;20057;-81
2024/02/23 11:34:30;;;;;;;6.50;1.60;;;;;;;8.94;72.35;97418.59;4840152;29;20064;-82
2024/02/23 11:36:59;;;;;;;5.07;1.80;;;;;;;8.96;72.86;97421.94;4824214;29;20500;-81
2024/02/23 11:39:27;;;;;;;5.47;1.80;;;;;;;8.99;72.18;97416.44;4839763;29;20073;-81
2024/02/23 11:41:53;;;;;;;3.17;1.40;;;;;;;9.04;73.23;97434.38;4840214;29;20141;-83
2024/02/23 11:44:20;;;;;;;7.20;1.75;;;;;;;9.07;71.88;97420.16;4840089;29;20746;-83
2024/02/23 11:46:47;;;;;;;3.88;1.40;;;;;;;9.10;71.45;97417.25;4824060;29;20109;-81
2024/02/23 11:49:16;;;;;;;5.57;1.42;;;;;;;9.13;70.97;97430.13;4839910;29;20642;-83
2024/02/23 11:51:42;;;;;;;6.10;1.88;;;;;;;9.15;71.09;97420.31;4840128;29;20050;-81